sensor_id;sensor_type;location;lat;lon;timestamp;pressure;altitude;pressure_sealevel;temperature;humidity
72124;BME280;63818;37.134;-8.548;2023-11-22T00:01:47;101909.3;;;16.5;51.6
72124;BME280;63818;37.134;-8.548;2023-11-22T00:11:28;101898.9;;;16.5;51.9
72124;BME280;63818;37.134;-8.548;2023-11-22T00:16:20;101907.0;;;16.5;51.6
72124;BME280;63818;37.134;-8.548;2023-11-22T00:21:08;101904.7;;;16.4;51.7
72124;BME280;63818;37.134;-8.548;2023-11-22T00:25:57;101898.9;;;16.4;51.5
72124;BME280;63818;37.134;-8.548;2023-11-22T00:35:38;101893.6;;;16.3;51.4
72124;BME280;63818;37.134;-8.548;2023-11-22T00:40:26;101885.0;;;16.3;51.6
72124;BME280;63818;37.134;-8.548;2023-11-22T00:45:15;101896.5;;;16.3;51.6
72124;BME280;63818;37.134;-8.548;2023-11-22T00:50:08;101890.7;;;16.2;52.2
72124;BME280;63818;37.134;-8.548;2023-11-22T00:54:58;101896.5;;;16.2;52.1
72124;BME280;63818;37.134;-8.548;2023-11-22T00:59:46;101886.4;;;16.2;52.1
72124;BME280;63818;37.134;-8.548;2023-11-22T01:04:35;101881.3;;;16.2;52.1
72124;BME280;63818;37.134;-8.548;2023-11-22T01:09:23;101868.4;;;16.2;52.3
72124;BME280;63818;37.134;-8.548;2023-11-22T01:19:04;101850.5;;;16.1;52.5
72124;BME280;63818;37.134;-8.548;2023-11-22T01:28:54;101835.7;;;16.0;52.5
72124;BME280;63818;37.134;-8.548;2023-11-22T01:33:45;101844.8;;;16.0;52.5
72124;BME280;63818;37.134;-8.548;2023-11-22T01:38:33;101842.0;;;16.0;52.2
72124;BME280;63818;37.134;-8.548;2023-11-22T01:43:21;101840.8;;;16.0;51.9
72124;BME280;63818;37.134;-8.548;2023-11-22T01:48:14;101843.3;;;15.9;51.8
72124;BME280;63818;37.134;-8.548;2023-11-22T01:53:07;101844.4;;;15.9;51.9
72124;BME280;63818;37.134;-8.548;2023-11-22T01:57:56;101835.2;;;15.9;51.8
72124;BME280;63818;37.134;-8.548;2023-11-22T02:02:46;101836.8;;;15.9;52.2
72124;BME280;63818;37.134;-8.548;2023-11-22T02:07:36;101833.9;;;15.8;52.1
72124;BME280;63818;37.134;-8.548;2023-11-22T02:12:24;101839.0;;;15.8;51.8
72124;BME280;63818;37.134;-8.548;2023-11-22T02:17:12;101835.8;;;15.8;52.2
72124;BME280;63818;37.134;-8.548;2023-11-22T02:22:03;101835.1;;;15.8;52.4
72124;BME280;63818;37.134;-8.548;2023-11-22T02:26:53;101838.3;;;15.7;52.8
72124;BME280;63818;37.134;-8.548;2023-11-22T02:31:42;101843.1;;;15.6;53.0
72124;BME280;63818;37.134;-8.548;2023-11-22T02:36:38;101847.8;;;15.6;53.5
72124;BME280;63818;37.134;-8.548;2023-11-22T02:41:26;101861.7;;;15.6;53.5
72124;BME280;63818;37.134;-8.548;2023-11-22T02:46:14;101856.5;;;15.6;53.6
72124;BME280;63818;37.134;-8.548;2023-11-22T02:51:02;101842.0;;;15.5;53.5
72124;BME280;63818;37.134;-8.548;2023-11-22T02:55:52;101837.7;;;15.5;53.9
72124;BME280;63818;37.134;-8.548;2023-11-22T03:00:45;101829.6;;;15.5;53.5
72124;BME280;63818;37.134;-8.548;2023-11-22T03:05:39;101815.7;;;15.4;53.8
72124;BME280;63818;37.134;-8.548;2023-11-22T03:10:27;101823.4;;;15.4;53.3
72124;BME280;63818;37.134;-8.548;2023-11-22T03:15:17;101808.1;;;15.4;53.6
72124;BME280;63818;37.134;-8.548;2023-11-22T03:20:05;101813.8;;;15.4;53.6
72124;BME280;63818;37.134;-8.548;2023-11-22T03:24:53;101823.5;;;15.4;53.4
72124;BME280;63818;37.134;-8.548;2023-11-22T03:34:34;101835.6;;;15.3;53.4
72124;BME280;63818;37.134;-8.548;2023-11-22T03:39:22;101834.3;;;15.3;53.5
72124;BME280;63818;37.134;-8.548;2023-11-22T03:44:10;101836.0;;;15.2;53.4
72124;BME280;63818;37.134;-8.548;2023-11-22T03:49:09;101825.5;;;15.2;53.2
72124;BME280;63818;37.134;-8.548;2023-11-22T03:53:57;101818.8;;;15.2;53.5
72124;BME280;63818;37.134;-8.548;2023-11-22T03:58:47;101819.1;;;15.2;53.6
72124;BME280;63818;37.134;-8.548;2023-11-22T04:03:35;101818.5;;;15.2;53.9
72124;BME280;63818;37.134;-8.548;2023-11-22T04:08:27;101812.4;;;15.1;54.4
72124;BME280;63818;37.134;-8.548;2023-11-22T04:13:16;101806.6;;;15.1;54.7
72124;BME280;63818;37.134;-8.548;2023-11-22T04:18:07;101803.9;;;15.1;54.5
72124;BME280;63818;37.134;-8.548;2023-11-22T04:22:55;101804.7;;;15.0;54.0
72124;BME280;63818;37.134;-8.548;2023-11-22T04:27:48;101783.3;;;15.0;53.6
72124;BME280;63818;37.134;-8.548;2023-11-22T04:32:36;101790.4;;;15.0;53.5
72124;BME280;63818;37.134;-8.548;2023-11-22T04:37:24;101792.0;;;15.0;52.7
72124;BME280;63818;37.134;-8.548;2023-11-22T04:42:24;101790.2;;;15.0;52.7
72124;BME280;63818;37.134;-8.548;2023-11-22T04:47:12;101777.6;;;15.0;52.9
72124;BME280;63818;37.134;-8.548;2023-11-22T04:52:25;101767.9;;;15.0;52.8
72124;BME280;63818;37.134;-8.548;2023-11-22T04:57:14;101773.6;;;15.0;52.9
72124;BME280;63818;37.134;-8.548;2023-11-22T05:02:07;101784.0;;;14.9;53.2
72124;BME280;63818;37.134;-8.548;2023-11-22T05:06:57;101778.1;;;14.9;53.3
72124;BME280;63818;37.134;-8.548;2023-11-22T05:11:45;101771.7;;;14.9;53.6
72124;BME280;63818;37.134;-8.548;2023-11-22T05:16:33;101777.2;;;14.8;53.6
72124;BME280;63818;37.134;-8.548;2023-11-22T05:21:25;101775.6;;;14.8;54.4
72124;BME280;63818;37.134;-8.548;2023-11-22T05:26:13;101786.2;;;14.8;54.3
72124;BME280;63818;37.134;-8.548;2023-11-22T05:31:01;101789.4;;;14.7;54.6
72124;BME280;63818;37.134;-8.548;2023-11-22T05:35:51;101797.5;;;14.7;54.4
72124;BME280;63818;37.134;-8.548;2023-11-22T05:40:39;101798.9;;;14.7;54.5
72124;BME280;63818;37.134;-8.548;2023-11-22T05:45:27;101802.9;;;14.7;55.0
72124;BME280;63818;37.134;-8.548;2023-11-22T05:50:52;101804.3;;;14.7;54.9
72124;BME280;63818;37.134;-8.548;2023-11-22T05:55:42;101813.1;;;14.7;54.5
72124;BME280;63818;37.134;-8.548;2023-11-22T06:00:30;101805.2;;;14.7;54.8
72124;BME280;63818;37.134;-8.548;2023-11-22T06:10:13;101791.4;;;14.6;55.0
72124;BME280;63818;37.134;-8.548;2023-11-22T06:15:01;101794.9;;;14.6;54.9
72124;BME280;63818;37.134;-8.548;2023-11-22T06:20:17;101799.0;;;14.6;54.8
72124;BME280;63818;37.134;-8.548;2023-11-22T06:25:10;101811.7;;;14.6;55.2
72124;BME280;63818;37.134;-8.548;2023-11-22T06:30:10;101813.6;;;14.6;54.9
72124;BME280;63818;37.134;-8.548;2023-11-22T06:34:59;101822.0;;;14.5;54.6
72124;BME280;63818;37.134;-8.548;2023-11-22T06:39:47;101821.9;;;14.5;55.0
72124;BME280;63818;37.134;-8.548;2023-11-22T06:44:47;101830.3;;;14.5;55.0
72124;BME280;63818;37.134;-8.548;2023-11-22T06:49:35;101831.5;;;14.4;55.2
72124;BME280;63818;37.134;-8.548;2023-11-22T06:54:32;101842.8;;;14.4;54.6
72124;BME280;63818;37.134;-8.548;2023-11-22T06:59:20;101849.8;;;14.5;54.7
72124;BME280;63818;37.134;-8.548;2023-11-22T07:04:54;101862.7;;;14.5;54.5
72124;BME280;63818;37.134;-8.548;2023-11-22T07:09:44;101877.5;;;14.5;54.5
72124;BME280;63818;37.134;-8.548;2023-11-22T07:14:32;101891.5;;;14.4;54.5
72124;BME280;63818;37.134;-8.548;2023-11-22T07:19:25;101892.6;;;14.4;54.4
72124;BME280;63818;37.134;-8.548;2023-11-22T07:24:13;101898.3;;;14.4;54.3
72124;BME280;63818;37.134;-8.548;2023-11-22T07:29:00;101905.6;;;14.4;54.6
72124;BME280;63818;37.134;-8.548;2023-11-22T07:33:55;101897.2;;;14.4;54.3
72124;BME280;63818;37.134;-8.548;2023-11-22T07:38:43;101905.9;;;14.4;54.6
72124;BME280;63818;37.134;-8.548;2023-11-22T07:43:30;101903.8;;;14.4;54.4
72124;BME280;63818;37.134;-8.548;2023-11-22T07:48:20;101910.0;;;14.4;54.7
72124;BME280;63818;37.134;-8.548;2023-11-22T07:53:09;101909.2;;;14.4;54.4
72124;BME280;63818;37.134;-8.548;2023-11-22T08:02:51;101912.1;;;14.4;54.4
72124;BME280;63818;37.134;-8.548;2023-11-22T08:07:39;101911.1;;;14.4;54.8
72124;BME280;63818;37.134;-8.548;2023-11-22T08:12:27;101923.9;;;14.4;54.2
72124;BME280;63818;37.134;-8.548;2023-11-22T08:17:17;101928.4;;;14.5;54.3
72124;BME280;63818;37.134;-8.548;2023-11-22T08:22:05;101927.6;;;14.5;54.4
72124;BME280;63818;37.134;-8.548;2023-11-22T08:26:53;101915.5;;;14.5;54.5
72124;BME280;63818;37.134;-8.548;2023-11-22T08:31:46;101930.2;;;14.5;54.7
72124;BME280;63818;37.134;-8.548;2023-11-22T08:36:34;101943.4;;;14.6;54.8
72124;BME280;63818;37.134;-8.548;2023-11-22T08:41:30;101947.3;;;14.6;55.0
72124;BME280;63818;37.134;-8.548;2023-11-22T08:46:20;101948.8;;;14.7;55.6
72124;BME280;63818;37.134;-8.548;2023-11-22T08:51:08;101964.2;;;14.7;55.6
72124;BME280;63818;37.134;-8.548;2023-11-22T08:55:59;101955.8;;;14.7;55.1
72124;BME280;63818;37.134;-8.548;2023-11-22T09:00:51;101959.0;;;14.7;54.7
72124;BME280;63818;37.134;-8.548;2023-11-22T09:05:39;101959.4;;;14.8;54.5
72124;BME280;63818;37.134;-8.548;2023-11-22T09:10:32;101950.7;;;14.8;54.1
72124;BME280;63818;37.134;-8.548;2023-11-22T09:15:20;101949.9;;;14.9;53.8
72124;BME280;63818;37.134;-8.548;2023-11-22T09:20:09;101940.4;;;14.9;53.1
72124;BME280;63818;37.134;-8.548;2023-11-22T09:24:57;101935.2;;;15.0;52.7
72124;BME280;63818;37.134;-8.548;2023-11-22T09:34:54;101944.3;;;15.0;52.4
72124;BME280;63818;37.134;-8.548;2023-11-22T09:40:24;101950.1;;;15.1;52.4
72124;BME280;63818;37.134;-8.548;2023-11-22T09:45:14;101944.9;;;15.1;51.8
72124;BME280;63818;37.134;-8.548;2023-11-22T09:50:03;101948.8;;;15.1;51.1
72124;BME280;63818;37.134;-8.548;2023-11-22T09:55:09;101959.0;;;15.2;50.9
72124;BME280;63818;37.134;-8.548;2023-11-22T10:00:01;101953.5;;;15.2;50.8
72124;BME280;63818;37.134;-8.548;2023-11-22T10:04:49;101964.2;;;15.3;50.6
72124;BME280;63818;37.134;-8.548;2023-11-22T10:09:44;101967.4;;;15.3;49.6
72124;BME280;63818;37.134;-8.548;2023-11-22T10:14:33;101962.2;;;15.3;50.0
72124;BME280;63818;37.134;-8.548;2023-11-22T10:24:29;101961.2;;;15.4;48.3
72124;BME280;63818;37.134;-8.548;2023-11-22T10:29:20;101968.9;;;15.5;47.6
72124;BME280;63818;37.134;-8.548;2023-11-22T10:34:08;101971.9;;;15.6;47.3
72124;BME280;63818;37.134;-8.548;2023-11-22T10:38:56;101966.2;;;15.6;46.5
72124;BME280;63818;37.134;-8.548;2023-11-22T10:43:54;101963.7;;;15.6;47.0
72124;BME280;63818;37.134;-8.548;2023-11-22T10:48:42;101953.5;;;15.7;47.0
72124;BME280;63818;37.134;-8.548;2023-11-22T10:53:31;101958.8;;;15.7;47.3
72124;BME280;63818;37.134;-8.548;2023-11-22T10:58:20;101967.9;;;15.8;47.2
72124;BME280;63818;37.134;-8.548;2023-11-22T11:03:14;101970.0;;;15.8;47.3
72124;BME280;63818;37.134;-8.548;2023-11-22T11:08:16;101957.4;;;15.8;47.3
72124;BME280;63818;37.134;-8.548;2023-11-22T11:13:04;101965.6;;;15.8;47.0
72124;BME280;63818;37.134;-8.548;2023-11-22T11:17:53;101961.1;;;15.9;46.6
72124;BME280;63818;37.134;-8.548;2023-11-22T11:22:52;101962.4;;;15.9;47.0
72124;BME280;63818;37.134;-8.548;2023-11-22T11:27:40;101965.0;;;15.9;46.6
72124;BME280;63818;37.134;-8.548;2023-11-22T11:32:32;101967.8;;;16.0;46.7
72124;BME280;63818;37.134;-8.548;2023-11-22T11:37:41;101958.3;;;16.0;45.8
72124;BME280;63818;37.134;-8.548;2023-11-22T11:42:30;101949.1;;;16.0;46.6
72124;BME280;63818;37.134;-8.548;2023-11-22T11:47:37;101933.6;;;16.0;46.0
72124;BME280;63818;37.134;-8.548;2023-11-22T11:52:26;101925.9;;;16.0;46.5
72124;BME280;63818;37.134;-8.548;2023-11-22T11:57:14;101924.5;;;16.1;46.4
72124;BME280;63818;37.134;-8.548;2023-11-22T12:02:02;101915.1;;;16.0;47.0
72124;BME280;63818;37.134;-8.548;2023-11-22T12:06:55;101924.4;;;16.1;46.6
72124;BME280;63818;37.134;-8.548;2023-11-22T12:11:43;101914.8;;;16.1;46.5
72124;BME280;63818;37.134;-8.548;2023-11-22T12:16:33;101899.0;;;16.2;46.4
72124;BME280;63818;37.134;-8.548;2023-11-22T12:21:22;101889.8;;;16.2;46.1
72124;BME280;63818;37.134;-8.548;2023-11-22T12:26:12;101872.2;;;16.2;45.4
72124;BME280;63818;37.134;-8.548;2023-11-22T12:31:08;101863.8;;;16.2;45.2
72124;BME280;63818;37.134;-8.548;2023-11-22T12:36:09;101846.9;;;16.3;45.1
72124;BME280;63818;37.134;-8.548;2023-11-22T12:40:58;101845.9;;;16.3;45.7
72124;BME280;63818;37.134;-8.548;2023-11-22T12:45:52;101846.1;;;16.4;45.6
72124;BME280;63818;37.134;-8.548;2023-11-22T12:50:41;101831.2;;;16.4;44.7
72124;BME280;63818;37.134;-8.548;2023-11-22T12:55:29;101822.5;;;16.5;44.0
72124;BME280;63818;37.134;-8.548;2023-11-22T13:00:17;101826.6;;;16.5;44.5
72124;BME280;63818;37.134;-8.548;2023-11-22T13:05:08;101817.2;;;16.6;44.2
72124;BME280;63818;37.134;-8.548;2023-11-22T13:09:56;101817.7;;;16.6;43.7
72124;BME280;63818;37.134;-8.548;2023-11-22T13:19:46;101800.0;;;16.7;42.8
72124;BME280;63818;37.134;-8.548;2023-11-22T13:24:55;101804.4;;;16.8;42.8
72124;BME280;63818;37.134;-8.548;2023-11-22T13:29:45;101783.5;;;16.8;42.9
72124;BME280;63818;37.134;-8.548;2023-11-22T13:34:36;101780.6;;;16.9;43.3
72124;BME280;63818;37.134;-8.548;2023-11-22T13:39:24;101772.6;;;17.0;42.4
72124;BME280;63818;37.134;-8.548;2023-11-22T13:44:21;101764.6;;;17.1;42.3
72124;BME280;63818;37.134;-8.548;2023-11-22T13:49:09;101747.6;;;17.2;42.4
72124;BME280;63818;37.134;-8.548;2023-11-22T13:53:57;101758.4;;;17.3;42.1
72124;BME280;63818;37.134;-8.548;2023-11-22T13:58:54;101744.9;;;17.5;41.8
72124;BME280;63818;37.134;-8.548;2023-11-22T14:03:42;101744.5;;;17.7;41.7
72124;BME280;63818;37.134;-8.548;2023-11-22T14:08:33;101740.1;;;18.0;40.8
72124;BME280;63818;37.134;-8.548;2023-11-22T14:13:21;101740.7;;;18.3;40.0
72124;BME280;63818;37.134;-8.548;2023-11-22T14:18:20;101738.5;;;18.5;39.6
72124;BME280;63818;37.134;-8.548;2023-11-22T14:23:08;101728.9;;;19.0;39.7
72124;BME280;63818;37.134;-8.548;2023-11-22T14:27:57;101717.7;;;19.7;39.0
72124;BME280;63818;37.134;-8.548;2023-11-22T14:32:45;101705.7;;;20.5;37.5
72124;BME280;63818;37.134;-8.548;2023-11-22T14:37:34;101697.9;;;21.6;35.3
72124;BME280;63818;37.134;-8.548;2023-11-22T14:42:22;101692.5;;;22.5;34.0
72124;BME280;63818;37.134;-8.548;2023-11-22T14:47:10;101677.4;;;23.0;33.2
72124;BME280;63818;37.134;-8.548;2023-11-22T14:51:58;101683.9;;;23.5;32.4
72124;BME280;63818;37.134;-8.548;2023-11-22T14:56:47;101670.8;;;23.9;31.8
72124;BME280;63818;37.134;-8.548;2023-11-22T15:01:35;101667.5;;;24.1;31.4
72124;BME280;63818;37.134;-8.548;2023-11-22T15:06:23;101663.4;;;24.3;31.1
72124;BME280;63818;37.134;-8.548;2023-11-22T15:11:11;101652.8;;;24.3;30.7
72124;BME280;63818;37.134;-8.548;2023-11-22T15:15:59;101646.6;;;24.4;30.8
72124;BME280;63818;37.134;-8.548;2023-11-22T15:20:56;101640.3;;;24.0;31.2
72124;BME280;63818;37.134;-8.548;2023-11-22T15:25:44;101648.2;;;23.1;32.8
72124;BME280;63818;37.134;-8.548;2023-11-22T15:30:48;101655.7;;;22.5;34.1
72124;BME280;63818;37.134;-8.548;2023-11-22T15:35:39;101658.0;;;22.0;35.0
72124;BME280;63818;37.134;-8.548;2023-11-22T15:40:30;101655.8;;;21.7;35.4
72124;BME280;63818;37.134;-8.548;2023-11-22T15:45:27;101648.7;;;21.5;35.9
72124;BME280;63818;37.134;-8.548;2023-11-22T15:50:16;101662.0;;;21.3;36.2
72124;BME280;63818;37.134;-8.548;2023-11-22T15:55:07;101667.8;;;21.1;36.4
72124;BME280;63818;37.134;-8.548;2023-11-22T15:59:55;101652.7;;;21.0;36.9
72124;BME280;63818;37.134;-8.548;2023-11-22T16:04:45;101654.3;;;20.9;36.5
72124;BME280;63818;37.134;-8.548;2023-11-22T16:09:33;101655.7;;;20.6;37.1
72124;BME280;63818;37.134;-8.548;2023-11-22T16:14:23;101671.4;;;20.2;37.9
72124;BME280;63818;37.134;-8.548;2023-11-22T16:20:36;101662.4;;;20.0;38.7
72124;BME280;63818;37.134;-8.548;2023-11-22T16:25:26;101668.6;;;19.7;39.8
72124;BME280;63818;37.134;-8.548;2023-11-22T16:30:15;101664.5;;;19.5;40.1
72124;BME280;63818;37.134;-8.548;2023-11-22T16:35:03;101656.6;;;19.3;40.3
72124;BME280;63818;37.134;-8.548;2023-11-22T16:39:51;101660.5;;;19.2;40.4
72124;BME280;63818;37.134;-8.548;2023-11-22T16:44:39;101670.8;;;19.1;40.7
72124;BME280;63818;37.134;-8.548;2023-11-22T16:49:31;101661.9;;;19.0;41.3
72124;BME280;63818;37.134;-8.548;2023-11-22T16:54:19;101661.7;;;18.9;41.7
72124;BME280;63818;37.134;-8.548;2023-11-22T16:59:07;101673.5;;;18.9;41.7
72124;BME280;63818;37.134;-8.548;2023-11-22T17:03:56;101679.1;;;18.8;42.2
72124;BME280;63818;37.134;-8.548;2023-11-22T17:08:44;101673.5;;;18.7;42.6
72124;BME280;63818;37.134;-8.548;2023-11-22T17:13:36;101663.1;;;18.7;42.9
72124;BME280;63818;37.134;-8.548;2023-11-22T17:18:24;101667.2;;;18.6;43.2
72124;BME280;63818;37.134;-8.548;2023-11-22T17:23:14;101683.0;;;18.5;43.3
72124;BME280;63818;37.134;-8.548;2023-11-22T17:28:02;101695.6;;;18.5;43.0
72124;BME280;63818;37.134;-8.548;2023-11-22T17:32:50;101703.2;;;18.5;43.3
72124;BME280;63818;37.134;-8.548;2023-11-22T17:37:38;101711.6;;;18.4;43.1
72124;BME280;63818;37.134;-8.548;2023-11-22T17:42:27;101708.3;;;18.4;43.3
72124;BME280;63818;37.134;-8.548;2023-11-22T17:47:16;101719.4;;;18.3;42.9
72124;BME280;63818;37.134;-8.548;2023-11-22T17:52:04;101714.9;;;18.2;42.8
72124;BME280;63818;37.134;-8.548;2023-11-22T17:56:54;101712.8;;;18.2;42.5
72124;BME280;63818;37.134;-8.548;2023-11-22T18:01:47;101715.3;;;18.1;42.9
72124;BME280;63818;37.134;-8.548;2023-11-22T18:11:28;101714.6;;;18.1;42.7
72124;BME280;63818;37.134;-8.548;2023-11-22T18:16:16;101731.9;;;18.0;42.6
72124;BME280;63818;37.134;-8.548;2023-11-22T18:21:18;101728.3;;;18.0;42.1
72124;BME280;63818;37.134;-8.548;2023-11-22T18:26:09;101734.9;;;18.0;42.1
72124;BME280;63818;37.134;-8.548;2023-11-22T18:30:57;101739.0;;;17.9;42.5
72124;BME280;63818;37.134;-8.548;2023-11-22T18:35:45;101742.1;;;17.9;42.7
72124;BME280;63818;37.134;-8.548;2023-11-22T18:40:33;101744.5;;;17.9;42.6
72124;BME280;63818;37.134;-8.548;2023-11-22T18:45:22;101744.1;;;17.8;42.8
72124;BME280;63818;37.134;-8.548;2023-11-22T18:50:11;101745.1;;;17.8;43.5
72124;BME280;63818;37.134;-8.548;2023-11-22T18:54:59;101748.9;;;17.8;43.3
72124;BME280;63818;37.134;-8.548;2023-11-22T18:59:54;101749.9;;;17.7;43.6
72124;BME280;63818;37.134;-8.548;2023-11-22T19:04:42;101763.2;;;17.7;44.1
72124;BME280;63818;37.134;-8.548;2023-11-22T19:09:30;101764.8;;;17.6;44.3
72124;BME280;63818;37.134;-8.548;2023-11-22T19:14:21;101775.9;;;17.5;44.6
72124;BME280;63818;37.134;-8.548;2023-11-22T19:19:09;101780.4;;;17.5;44.6
72124;BME280;63818;37.134;-8.548;2023-11-22T19:23:59;101786.8;;;17.5;44.4
72124;BME280;63818;37.134;-8.548;2023-11-22T19:28:47;101781.1;;;17.4;44.8
72124;BME280;63818;37.134;-8.548;2023-11-22T19:33:43;101792.6;;;17.4;45.1
72124;BME280;63818;37.134;-8.548;2023-11-22T19:38:31;101808.9;;;17.4;45.1
72124;BME280;63818;37.134;-8.548;2023-11-22T19:43:24;101807.5;;;17.3;45.3
72124;BME280;63818;37.134;-8.548;2023-11-22T19:48:12;101804.0;;;17.3;45.1
72124;BME280;63818;37.134;-8.548;2023-11-22T19:53:00;101798.9;;;17.3;44.9
72124;BME280;63818;37.134;-8.548;2023-11-22T19:57:53;101797.6;;;17.2;45.1
72124;BME280;63818;37.134;-8.548;2023-11-22T20:07:34;101808.2;;;17.2;45.5
72124;BME280;63818;37.134;-8.548;2023-11-22T20:12:22;101810.4;;;17.1;45.6
72124;BME280;63818;37.134;-8.548;2023-11-22T20:22:03;101808.7;;;17.1;46.2
72124;BME280;63818;37.134;-8.548;2023-11-22T20:26:51;101807.4;;;17.1;46.0
72124;BME280;63818;37.134;-8.548;2023-11-22T20:31:42;101799.3;;;17.1;46.4
72124;BME280;63818;37.134;-8.548;2023-11-22T20:36:35;101795.6;;;17.0;46.5
72124;BME280;63818;37.134;-8.548;2023-11-22T20:41:23;101782.5;;;17.0;46.7
72124;BME280;63818;37.134;-8.548;2023-11-22T20:46:11;101784.9;;;16.9;46.8
72124;BME280;63818;37.134;-8.548;2023-11-22T20:51:03;101776.6;;;16.9;47.1
72124;BME280;63818;37.134;-8.548;2023-11-22T20:55:51;101773.9;;;16.9;47.0
72124;BME280;63818;37.134;-8.548;2023-11-22T21:00:42;101783.2;;;16.9;47.2
72124;BME280;63818;37.134;-8.548;2023-11-22T21:05:35;101780.3;;;16.8;47.0
72124;BME280;63818;37.134;-8.548;2023-11-22T21:10:23;101772.5;;;16.8;47.4
72124;BME280;63818;37.134;-8.548;2023-11-22T21:15:16;101788.6;;;16.8;47.5
72124;BME280;63818;37.134;-8.548;2023-11-22T21:20:05;101799.0;;;16.8;48.0
72124;BME280;63818;37.134;-8.548;2023-11-22T21:24:53;101805.2;;;16.8;47.8
72124;BME280;63818;37.134;-8.548;2023-11-22T21:29:47;101804.3;;;16.7;48.0
72124;BME280;63818;37.134;-8.548;2023-11-22T21:34:35;101820.4;;;16.7;48.4
72124;BME280;63818;37.134;-8.548;2023-11-22T21:39:36;101818.3;;;16.6;48.5
72124;BME280;63818;37.134;-8.548;2023-11-22T21:44:25;101815.3;;;16.7;48.2
72124;BME280;63818;37.134;-8.548;2023-11-22T21:49:12;101818.7;;;16.6;48.6
72124;BME280;63818;37.134;-8.548;2023-11-22T21:54:07;101833.2;;;16.6;48.7
72124;BME280;63818;37.134;-8.548;2023-11-22T21:58:55;101832.8;;;16.5;48.9
72124;BME280;63818;37.134;-8.548;2023-11-22T22:03:51;101834.8;;;16.5;49.2
72124;BME280;63818;37.134;-8.548;2023-11-22T22:08:39;101835.5;;;16.5;49.4
72124;BME280;63818;37.134;-8.548;2023-11-22T22:13:27;101831.4;;;16.5;49.9
72124;BME280;63818;37.134;-8.548;2023-11-22T22:18:24;101841.1;;;16.5;49.8
72124;BME280;63818;37.134;-8.548;2023-11-22T22:23:12;101842.1;;;16.4;50.0
72124;BME280;63818;37.134;-8.548;2023-11-22T22:28:00;101846.2;;;16.4;49.9
72124;BME280;63818;37.134;-8.548;2023-11-22T22:32:48;101840.0;;;16.4;50.1
72124;BME280;63818;37.134;-8.548;2023-11-22T22:37:57;101834.9;;;16.4;50.0
72124;BME280;63818;37.134;-8.548;2023-11-22T22:42:45;101834.9;;;16.4;50.2
72124;BME280;63818;37.134;-8.548;2023-11-22T22:47:35;101835.5;;;16.3;50.6
72124;BME280;63818;37.134;-8.548;2023-11-22T22:52:23;101840.0;;;16.3;50.5
72124;BME280;63818;37.134;-8.548;2023-11-22T22:57:12;101840.6;;;16.3;50.8
72124;BME280;63818;37.134;-8.548;2023-11-22T23:02:00;101848.3;;;16.2;50.8
72124;BME280;63818;37.134;-8.548;2023-11-22T23:06:48;101835.1;;;16.2;50.8
72124;BME280;63818;37.134;-8.548;2023-11-22T23:11:43;101828.8;;;16.2;51.1
72124;BME280;63818;37.134;-8.548;2023-11-22T23:16:31;101833.3;;;16.2;51.2
72124;BME280;63818;37.134;-8.548;2023-11-22T23:21:20;101830.6;;;16.2;51.3
72124;BME280;63818;37.134;-8.548;2023-11-22T23:26:12;101826.1;;;16.1;51.0
72124;BME280;63818;37.134;-8.548;2023-11-22T23:31:01;101824.5;;;16.1;51.2
72124;BME280;63818;37.134;-8.548;2023-11-22T23:35:56;101805.1;;;16.1;51.2
72124;BME280;63818;37.134;-8.548;2023-11-22T23:40:44;101801.6;;;16.1;51.2
72124;BME280;63818;37.134;-8.548;2023-11-22T23:45:34;101796.8;;;16.1;51.4
72124;BME280;63818;37.134;-8.548;2023-11-22T23:50:22;101790.1;;;16.1;51.7
72124;BME280;63818;37.134;-8.548;2023-11-22T23:55:31;101781.8;;;16.0;51.7
